Time;durP1;ratioP1;P1;durP2;ratioP2;P2;SDS_P1;SDS_P2;PMS_P1;PMS_P2;Temp;Humidity;BMP_temperature;BMP_pressure;BME280_temperature;BME280_humidity;BME280_pressure;Samples;Min_cycle;Max_cycle;Signal;HPM_P1;HPM_P2
2023/10/31 00:01:44;;;;;;;7.53;6.03;;;;;;;12.89;100.00;99526.84;5267934;28;20025;-81
2023/10/31 00:04:16;;;;;;;5.97;5.23;;;;;;;13.25;100.00;99590.19;5275485;28;20028;-81
2023/10/31 00:06:47;;;;;;;7.57;5.07;;;;;;;12.73;100.00;99535.28;5258908;28;20028;-81
2023/10/31 00:09:20;;;;;;;9.60;5.20;;;;;;;13.10;100.00;99568.75;5256703;28;20021;-81
2023/10/31 00:11:51;;;;;;;7.97;4.47;;;;;;;13.27;100.00;99597.91;5270064;28;20108;-81
2023/10/31 00:14:22;;;;;;;6.90;4.73;;;;;;;12.98;100.00;99552.31;5259878;28;20049;-81
2023/10/31 00:16:54;;;;;;;5.90;4.10;;;;;;;12.97;100.00;99560.34;5273666;28;20157;-81
2023/10/31 00:19:25;;;;;;;5.77;3.47;;;;;;;12.92;100.00;99544.97;5263099;28;20056;-80
2023/10/31 00:21:57;;;;;;;5.67;3.30;;;;;;;12.97;100.00;99566.41;5273120;28;20025;-81
2023/10/31 00:24:28;;;;;;;6.43;3.83;;;;;;;13.11;100.00;99577.47;5294470;28;20074;-81
2023/10/31 00:27:00;;;;;;;5.93;3.00;;;;;;;13.06;100.00;99598.91;5278982;28;20025;-81
2023/10/31 00:29:31;;;;;;;4.43;2.90;;;;;;;12.97;100.00;99571.66;5277959;28;20025;-82
2023/10/31 00:32:03;;;;;;;4.40;2.63;;;;;;;12.82;100.00;99553.69;5264244;28;20112;-81
2023/10/31 00:34:34;;;;;;;5.47;3.17;;;;;;;12.78;100.00;99554.94;5258343;28;20451;-81
2023/10/31 00:37:06;;;;;;;6.50;2.60;;;;;;;12.92;100.00;99582.59;5276984;28;20032;-81
2023/10/31 00:39:37;;;;;;;3.87;2.50;;;;;;;12.96;100.00;99570.00;5278340;28;20043;-81
2023/10/31 00:42:08;;;;;;;4.80;3.13;;;;;;;13.16;100.00;99604.19;5279234;28;20052;-81
2023/10/31 00:44:40;;;;;;;4.23;2.67;;;;;;;13.08;100.00;99594.34;5277583;28;20032;-81
2023/10/31 00:47:11;;;;;;;9.07;3.67;;;;;;;13.07;100.00;99588.25;5279296;28;20063;-82
2023/10/31 00:49:43;;;;;;;5.57;2.70;;;;;;;12.70;100.00;99563.53;5294062;28;20031;-81
2023/10/31 00:52:14;;;;;;;5.30;2.67;;;;;;;13.05;100.00;99587.59;5269678;28;20394;-81
2023/10/31 00:54:45;;;;;;;5.77;2.70;;;;;;;13.05;100.00;99598.09;5267484;28;20031;-81
2023/10/31 00:57:17;;;;;;;7.50;3.10;;;;;;;12.95;100.00;99586.75;5264160;28;20173;-81
2023/10/31 00:59:48;;;;;;;5.33;2.23;;;;;;;12.87;100.00;99578.72;5264120;28;20095;-81
2023/10/31 01:02:20;;;;;;;7.20;3.00;;;;;;;12.86;100.00;99579.69;5278208;28;20024;-81
2023/10/31 01:04:51;;;;;;;9.00;3.33;;;;;;;12.79;100.00;99580.22;5270770;28;20062;-81
2023/10/31 01:07:22;;;;;;;7.80;3.40;;;;;;;12.93;100.00;99622.84;5265611;28;20055;-81
2023/10/31 01:09:54;;;;;;;7.73;4.03;;;;;;;12.81;100.00;99594.06;5277341;28;20020;-82
2023/10/31 01:12:27;;;;;;;8.17;5.37;;;;;;;12.75;100.00;99591.16;5265093;28;20047;-82
2023/10/31 01:14:58;;;;;;;9.37;6.97;;;;;;;12.71;100.00;99598.47;5278337;28;20028;-82
2023/10/31 01:17:30;;;;;;;10.30;7.73;;;;;;;12.95;100.00;99620.94;5289791;28;20517;-82
2023/10/31 01:20:01;;;;;;;13.03;9.63;;;;;;;12.68;100.00;99591.72;5259328;28;20017;-82
2023/10/31 01:22:33;;;;;;;13.33;10.40;;;;;;;12.95;100.00;99620.94;5272923;28;20091;-81
2023/10/31 01:25:05;;;;;;;15.23;12.07;;;;;;;12.88;100.00;99630.31;5268013;28;20413;-82
2023/10/31 01:27:36;;;;;;;15.47;12.60;;;;;;;12.68;100.00;99588.25;5277847;28;20021;-82
2023/10/31 01:30:08;;;;;;;18.87;13.70;;;;;;;12.66;100.00;99595.44;5269171;28;20437;-82
2023/10/31 01:32:39;;;;;;;17.43;14.97;;;;;;;12.87;100.00;99628.63;5256770;28;20013;-82
2023/10/31 01:35:10;;;;;;;20.47;16.57;;;;;;;12.67;100.00;99597.13;5257333;28;20032;-82
2023/10/31 01:37:42;;;;;;;21.43;16.67;;;;;;;12.70;100.00;99609.97;5272528;28;20028;-81
2023/10/31 01:40:16;;;;;;;22.20;18.30;;;;;;;12.72;100.00;99594.06;5274435;28;20020;-81
2023/10/31 01:42:48;;;;;;;25.98;18.42;;;;;;;12.85;100.00;99628.78;5274122;28;20444;-80
2023/10/31 01:45:19;;;;;;;20.63;18.47;;;;;;;12.75;100.00;99620.91;5267614;28;20113;-81
2023/10/31 01:47:50;;;;;;;26.33;19.87;;;;;;;12.65;100.00;99609.53;5266038;28;20039;-82
2023/10/31 01:50:22;;;;;;;24.17;21.27;;;;;;;12.72;100.00;99612.44;5259076;28;20389;-82
2023/10/31 01:52:53;;;;;;;27.73;22.30;;;;;;;12.57;100.00;99602.34;5271720;28;20148;-83
2023/10/31 01:55:27;;;;;;;28.50;22.47;;;;;;;12.88;100.00;99652.16;5277315;28;20036;-83
2023/10/31 01:57:59;;;;;;;25.87;22.90;;;;;;;12.64;100.00;99626.25;5277202;28;20749;-83
2023/10/31 02:00:30;;;;;;;26.27;21.93;;;;;;;12.70;100.00;99620.47;5292126;28;20028;-83
2023/10/31 02:03:03;;;;;;;27.43;22.83;;;;;;;12.83;100.00;99642.06;5266502;28;20531;-84
2023/10/31 02:05:35;;;;;;;30.73;23.60;;;;;;;12.81;100.00;99651.88;5277719;28;20044;-84
2023/10/31 02:08:09;;;;;;;25.63;22.63;;;;;;;12.74;100.00;99639.44;5261679;28;20071;-83
2023/10/31 02:10:41;;;;;;;29.75;24.08;;;;;;;12.51;100.00;99598.47;5255799;28;20116;-83
2023/10/31 02:13:14;;;;;;;28.67;23.77;;;;;;;12.87;100.00;99668.88;5269055;28;20123;-83
2023/10/31 02:15:45;;;;;;;27.57;22.27;;;;;;;12.80;100.00;99646.75;5277935;28;20036;-83
2023/10/31 02:18:17;;;;;;;27.93;22.80;;;;;;;12.81;100.00;99645.81;5277710;28;20111;-84
2023/10/31 02:20:49;;;;;;;28.93;23.87;;;;;;;12.50;100.00;99602.03;5277638;28;20028;-83
2023/10/31 02:23:20;;;;;;;27.67;23.03;;;;;;;12.32;100.00;99584.31;5277764;28;20103;-83
2023/10/31 02:25:52;;;;;;;29.13;22.80;;;;;;;12.64;100.00;99619.22;5275472;28;20032;-83
2023/10/31 02:28:27;;;;;;;38.13;23.40;;;;;;;12.75;100.00;99631.41;5272944;28;20029;-83
2023/10/31 02:30:58;;;;;;;27.57;22.90;;;;;;;12.38;100.00;99579.50;5277752;28;20480;-83
2023/10/31 02:33:30;;;;;;;27.70;22.77;;;;;;;12.65;100.00;99614.81;5262131;28;20079;-83
2023/10/31 02:36:04;;;;;;;28.90;23.40;;;;;;;12.85;100.00;99641.06;5257845;28;20032;-83
2023/10/31 02:38:35;;;;;;;26.60;23.23;;;;;;;12.87;100.00;99662.78;5265972;28;20060;-83
2023/10/31 02:41:07;;;;;;;32.87;24.90;;;;;;;12.83;100.00;99659.59;5272066;28;20599;-83
2023/10/31 02:43:39;;;;;;;30.57;23.57;;;;;;;12.79;100.00;99669.56;5258479;28;20025;-82
2023/10/31 02:46:13;;;;;;;27.77;23.70;;;;;;;12.89;100.00;99647.72;5259873;28;20788;-83
2023/10/31 02:48:44;;;;;;;29.30;25.17;;;;;;;12.71;100.00;99635.25;5266570;28;20108;-82
2023/10/31 02:51:17;;;;;;;27.60;24.67;;;;;;;12.67;100.00;99639.13;5281168;28;20162;-82
2023/10/31 02:53:48;;;;;;;29.10;25.03;;;;;;;12.74;100.00;99644.69;5279331;28;20542;-82
2023/10/31 02:56:19;;;;;;;27.77;23.47;;;;;;;12.64;100.00;99618.38;5281513;28;20029;-82
2023/10/31 02:58:51;;;;;;;28.43;25.10;;;;;;;12.99;100.00;99685.38;5296728;28;20090;-82
2023/10/31 03:01:22;;;;;;;28.77;25.37;;;;;;;12.76;100.00;99643.56;5279476;28;20024;-81
2023/10/31 03:03:54;;;;;;;30.43;24.27;;;;;;;12.77;100.00;99657.53;5279798;28;20125;-82
2023/10/31 03:06:26;;;;;;;30.10;23.77;;;;;;;12.99;100.00;99690.63;5266440;28;20100;-81
2023/10/31 03:08:57;;;;;;;30.63;24.90;;;;;;;12.78;100.00;99662.66;5270049;28;20033;-81
2023/10/31 03:11:29;;;;;;;26.53;23.40;;;;;;;12.78;100.00;99672.31;5262881;28;20067;-82
2023/10/31 03:14:00;;;;;;;27.77;24.70;;;;;;;12.93;100.00;99697.25;5259514;28;20049;-82
2023/10/31 03:16:32;;;;;;;29.50;24.83;;;;;;;12.49;100.00;99628.44;5269906;28;20036;-82
2023/10/31 03:19:04;;;;;;;28.53;25.63;;;;;;;12.68;100.00;99657.38;5279415;28;20025;-81
2023/10/31 03:21:35;;;;;;;27.93;25.10;;;;;;;12.77;100.00;99676.75;5269863;28;20017;-82
2023/10/31 03:24:06;;;;;;;29.30;23.83;;;;;;;12.66;100.00;99674.22;5274467;28;20058;-81
2023/10/31 03:26:38;;;;;;;32.63;27.17;;;;;;;12.57;100.00;99666.19;5276042;28;20025;-81
2023/10/31 03:29:09;;;;;;;31.30;26.83;;;;;;;12.86;100.00;99716.31;5276874;28;20029;-82
2023/10/31 03:31:42;;;;;;;30.30;27.17;;;;;;;12.79;100.00;99711.59;5270723;28;20506;-81
2023/10/31 03:34:13;;;;;;;30.87;27.63;;;;;;;12.70;100.00;99696.66;5279798;28;20027;-81
2023/10/31 03:36:45;;;;;;;30.67;27.47;;;;;;;12.70;100.00;99700.13;5276820;28;20021;-81
2023/10/31 03:39:16;;;;;;;31.97;28.60;;;;;;;12.78;100.00;99709.94;5266289;28;20025;-80
2023/10/31 03:41:47;;;;;;;33.33;29.20;;;;;;;12.69;100.00;99693.19;5269793;28;20025;-80
2023/10/31 03:44:19;;;;;;;35.27;28.93;;;;;;;12.58;100.00;99683.59;5269463;28;20100;-80
2023/10/31 03:46:50;;;;;;;32.17;28.70;;;;;;;12.75;100.00;99698.88;5272409;28;20036;-81
2023/10/31 03:49:22;;;;;;;33.20;29.83;;;;;;;12.76;100.00;99717.13;5272448;28;20036;-81
2023/10/31 03:51:53;;;;;;;32.67;29.27;;;;;;;12.74;100.00;99713.78;5283846;28;20494;-81
2023/10/31 03:54:25;;;;;;;33.80;28.43;;;;;;;12.94;100.00;99746.22;5279306;28;20695;-81
2023/10/31 03:56:56;;;;;;;32.17;28.83;;;;;;;12.89;100.00;99750.22;5279640;28;20032;-81
2023/10/31 03:59:27;;;;;;;33.47;28.80;;;;;;;12.81;100.00;99735.13;5271428;28;20139;-81
2023/10/31 04:01:59;;;;;;;33.67;30.13;;;;;;;12.69;100.00;99714.19;5272152;28;20024;-81
2023/10/31 04:04:30;;;;;;;32.63;29.30;;;;;;;12.70;100.00;99705.38;5279292;28;20154;-81
2023/10/31 04:07:01;;;;;;;32.63;29.13;;;;;;;12.92;100.00;99747.31;5259299;28;20433;-81
2023/10/31 04:09:33;;;;;;;30.37;27.17;;;;;;;12.75;100.00;99728.59;5257972;28;20048;-81
2023/10/31 04:12:04;;;;;;;30.30;27.20;;;;;;;12.80;100.00;99736.91;5259070;28;20021;-81
2023/10/31 04:14:38;;;;;;;29.37;26.30;;;;;;;12.72;100.00;99726.25;5257905;28;20063;-81
2023/10/31 04:17:09;;;;;;;32.60;29.00;;;;;;;12.75;100.00;99727.78;5263466;28;20028;-81
2023/10/31 04:19:41;;;;;;;29.43;26.53;;;;;;;12.83;100.00;99747.16;5279473;28;20036;-81
2023/10/31 04:22:12;;;;;;;26.70;23.80;;;;;;;12.76;100.00;99743.41;5279351;28;20024;-81
2023/10/31 04:24:43;;;;;;;28.03;25.23;;;;;;;12.77;100.00;99745.06;5277689;28;20067;-81
2023/10/31 04:27:15;;;;;;;27.10;24.30;;;;;;;12.61;100.00;99724.56;5278453;28;20033;-81
2023/10/31 04:29:46;;;;;;;26.60;23.87;;;;;;;12.56;100.00;99727.59;5273886;28;20108;-80
2023/10/31 04:32:17;;;;;;;25.57;22.83;;;;;;;12.97;100.00;99788.97;5263278;28;20027;-81
2023/10/31 04:34:49;;;;;;;25.97;23.23;;;;;;;12.99;100.00;99802.78;5270509;28;20419;-81
2023/10/31 04:37:20;;;;;;;25.40;22.53;;;;;;;12.69;100.00;99756.22;5258492;28;20515;-81
2023/10/31 04:39:51;;;;;;;25.67;22.60;;;;;;;12.69;100.00;99768.53;5272647;28;20050;-82
2023/10/31 04:42:23;;;;;;;25.73;23.13;;;;;;;12.78;100.00;99794.00;5271671;28;20017;-83
2023/10/31 04:44:54;;;;;;;23.90;21.60;;;;;;;12.73;100.00;99790.97;5272674;28;20500;-83
2023/10/31 04:47:25;;;;;;;24.60;21.93;;;;;;;12.94;100.00;99818.97;5278725;28;20021;-83
2023/10/31 04:49:57;;;;;;;23.90;21.40;;;;;;;12.47;100.00;99754.63;5261169;28;20056;-83
2023/10/31 04:52:28;;;;;;;24.97;22.40;;;;;;;12.75;100.00;99802.16;5265937;28;20086;-82
2023/10/31 04:54:59;;;;;;;22.27;19.90;;;;;;;12.65;100.00;99785.53;5271531;28;20020;-81
2023/10/31 04:57:31;;;;;;;18.60;16.67;;;;;;;12.58;100.00;99783.41;5276722;28;20032;-82
2023/10/31 05:00:05;;;;;;;18.10;16.27;;;;;;;12.75;100.00;99802.16;5259949;28;20032;-81
2023/10/31 05:02:37;;;;;;;19.23;17.23;;;;;;;12.62;100.00;99772.66;5266368;28;20546;-83
2023/10/31 05:05:08;;;;;;;22.40;19.60;;;;;;;12.60;100.00;99788.56;5258615;28;20024;-82
2023/10/31 05:07:40;;;;;;;22.93;20.73;;;;;;;12.57;100.00;99792.28;5287834;28;20460;-82
2023/10/31 05:10:11;;;;;;;24.63;22.07;;;;;;;12.39;100.00;99770.22;5269094;28;20070;-82
2023/10/31 05:12:42;;;;;;;27.30;21.83;;;;;;;12.67;100.00;99804.63;5256104;28;20025;-82
2023/10/31 05:15:14;;;;;;;23.33;21.03;;;;;;;12.48;100.00;99764.16;5260489;28;20028;-81
2023/10/31 05:17:45;;;;;;;23.90;21.60;;;;;;;12.49;100.00;99778.13;5268989;28;20029;-82
2023/10/31 05:20:16;;;;;;;24.00;21.70;;;;;;;12.61;100.00;99805.13;5265819;28;20388;-83
2023/10/31 05:22:48;;;;;;;23.50;21.10;;;;;;;12.45;100.00;99774.94;5266377;28;20043;-83
2023/10/31 05:25:19;;;;;;;23.20;21.00;;;;;;;12.79;100.00;99827.19;5268217;28;20111;-83
2023/10/31 05:27:52;;;;;;;22.73;20.43;;;;;;;12.40;100.00;99779.75;5272829;28;20037;-83
2023/10/31 05:30:23;;;;;;;23.50;21.10;;;;;;;12.48;100.00;99787.78;5278290;28;20499;-82
2023/10/31 05:32:55;;;;;;;23.73;21.50;;;;;;;12.58;100.00;99799.19;5293941;28;20029;-82
2023/10/31 05:35:26;;;;;;;23.27;21.07;;;;;;;12.33;100.00;99775.03;5267129;28;20132;-82
2023/10/31 05:37:58;;;;;;;22.10;20.10;;;;;;;12.42;100.00;99783.06;5276305;28;20039;-82
2023/10/31 05:40:29;;;;;;;22.23;20.13;;;;;;;12.57;100.00;99807.19;5276514;28;20024;-82
2023/10/31 05:43:02;;;;;;;22.27;19.93;;;;;;;12.54;100.00;99813.56;5277681;28;20023;-82
2023/10/31 05:45:34;;;;;;;23.30;19.97;;;;;;;12.61;100.00;99837.50;5278203;28;20032;-82
2023/10/31 05:48:05;;;;;;;22.30;20.30;;;;;;;12.53;100.00;99832.88;5294122;28;20024;-83
2023/10/31 05:50:37;;;;;;;21.93;19.70;;;;;;;12.43;100.00;99816.25;5288399;28;20044;-82
2023/10/31 05:53:08;;;;;;;22.60;20.43;;;;;;;12.33;100.00;99801.28;5276524;28;20025;-82
2023/10/31 05:55:39;;;;;;;21.67;19.47;;;;;;;12.57;100.00;99844.81;5287199;28;20033;-82
2023/10/31 05:58:12;;;;;;;21.27;19.27;;;;;;;12.40;100.00;99824.38;5278403;28;20048;-82
2023/10/31 06:00:43;;;;;;;21.03;18.93;;;;;;;12.37;100.00;99833.38;5276411;28;20024;-82
2023/10/31 06:03:15;;;;;;;19.67;17.77;;;;;;;12.66;100.00;99884.38;5277594;28;20046;-82
2023/10/31 06:05:46;;;;;;;19.23;17.40;;;;;;;12.32;100.00;99846.84;5263205;28;20032;-82
2023/10/31 06:08:17;;;;;;;18.23;16.53;;;;;;;12.26;100.00;99838.66;5258389;28;20098;-82
2023/10/31 06:10:49;;;;;;;19.10;17.30;;;;;;;12.26;100.00;99842.13;5258075;28;20067;-82
2023/10/31 06:13:21;;;;;;;17.87;16.17;;;;;;;12.26;100.00;99850.00;5259302;28;20045;-82
2023/10/31 06:15:54;;;;;;;19.33;17.33;;;;;;;12.16;100.00;99847.31;5270512;28;20050;-82
2023/10/31 06:18:26;;;;;;;22.77;17.80;;;;;;;12.05;100.00;99842.91;5263126;28;20445;-80
2023/10/31 06:20:57;;;;;;;19.93;18.03;;;;;;;12.19;100.00;99872.47;5267906;28;20057;-82
2023/10/31 06:23:29;;;;;;;18.97;17.00;;;;;;;12.19;100.00;99885.59;5261251;28;20456;-82
2023/10/31 06:26:00;;;;;;;19.80;17.67;;;;;;;12.13;100.00;99884.28;5265959;28;20506;-83
2023/10/31 06:28:34;;;;;;;18.87;17.17;;;;;;;12.09;100.00;99885.53;5276854;28;20035;-82
2023/10/31 06:31:05;;;;;;;21.15;19.02;;;;;;;12.14;100.00;99874.63;5272190;28;20480;-83
2023/10/31 06:33:37;;;;;;;20.23;18.43;;;;;;;11.99;100.00;99864.41;5271737;28;20025;-82
2023/10/31 06:36:08;;;;;;;20.27;18.33;;;;;;;12.17;100.00;99898.00;5271791;28;20033;-82
2023/10/31 06:38:41;;;;;;;20.53;18.53;;;;;;;12.06;100.00;99873.44;5267879;28;20652;-83
2023/10/31 06:41:12;;;;;;;20.77;18.57;;;;;;;12.01;100.00;99866.91;5281207;28;20461;-82
2023/10/31 06:43:44;;;;;;;21.90;19.70;;;;;;;12.42;100.00;99938.00;5281278;28;20031;-83
2023/10/31 06:46:15;;;;;;;20.57;18.67;;;;;;;12.12;100.00;99887.03;5280749;28;20032;-82
2023/10/31 06:48:47;;;;;;;23.20;21.03;;;;;;;12.20;100.00;99903.03;5279992;28;20387;-83
2023/10/31 06:51:18;;;;;;;19.63;17.83;;;;;;;12.17;100.00;99890.97;5279226;28;20140;-81
2023/10/31 06:53:51;;;;;;;20.07;18.27;;;;;;;12.17;100.00;99896.22;5268689;28;20540;-82
2023/10/31 06:56:22;;;;;;;19.93;17.97;;;;;;;12.22;100.00;99908.94;5270370;28;20851;-82
2023/10/31 06:58:54;;;;;;;19.63;17.80;;;;;;;12.18;100.00;99916.25;5279916;28;20141;-81
2023/10/31 07:01:26;;;;;;;18.23;16.43;;;;;;;12.34;100.00;99936.84;5276576;28;20029;-81
2023/10/31 07:03:57;;;;;;;18.57;16.50;;;;;;;12.45;100.00;99943.00;5259536;28;20027;-82
2023/10/31 07:06:29;;;;;;;18.13;16.43;;;;;;;12.37;100.00;99917.38;5271452;28;20040;-82
2023/10/31 07:09:04;;;;;;;17.43;15.60;;;;;;;12.25;100.00;99903.47;5277830;28;20858;-82
2023/10/31 07:11:36;;;;;;;17.33;15.67;;;;;;;12.32;100.00;99925.63;5271933;28;20028;-83
2023/10/31 07:14:07;;;;;;;18.00;15.90;;;;;;;12.48;100.00;99945.34;5261213;28;20041;-83
2023/10/31 07:16:39;;;;;;;15.37;13.70;;;;;;;12.40;100.00;99929.41;5278994;28;20025;-80
2023/10/31 07:19:11;;;;;;;15.67;14.07;;;;;;;12.24;100.00;99909.66;5280069;28;20418;-81
2023/10/31 07:21:42;;;;;;;15.13;13.73;;;;;;;12.37;100.00;99930.50;5271495;28;20531;-81
2023/10/31 07:24:14;;;;;;;16.13;14.43;;;;;;;12.27;100.00;99922.53;5287505;28;20038;-81
2023/10/31 07:26:45;;;;;;;14.10;12.47;;;;;;;12.58;100.00;99975.16;5274702;28;20567;-81
2023/10/31 07:29:16;;;;;;;14.70;13.40;;;;;;;12.44;100.00;99954.47;5270256;28;20029;-81
2023/10/31 07:31:48;;;;;;;14.63;12.10;;;;;;;12.20;100.00;99913.53;5273070;28;20064;-80
2023/10/31 07:34:19;;;;;;;14.47;13.13;;;;;;;12.21;100.00;99920.44;5274458;28;20369;-81
2023/10/31 07:36:50;;;;;;;13.27;12.03;;;;;;;12.52;100.00;99966.94;5259496;28;20036;-82
2023/10/31 07:39:22;;;;;;;13.83;12.23;;;;;;;12.22;100.00;99929.97;5268020;28;20032;-82
2023/10/31 07:41:53;;;;;;;12.43;11.30;;;;;;;12.33;100.00;99937.81;5265304;28;20025;-82
2023/10/31 07:44:28;;;;;;;14.37;12.10;;;;;;;12.32;100.00;99915.13;5277400;28;20048;-83
2023/10/31 07:46:59;;;;;;;13.00;11.70;;;;;;;12.21;100.00;99925.69;5259467;28;20086;-82
2023/10/31 07:49:31;;;;;;;12.53;11.27;;;;;;;12.39;100.00;99967.13;5260264;28;20036;-82
2023/10/31 07:52:02;;;;;;;14.40;12.27;;;;;;;12.32;100.00;99930.06;5277119;28;20051;-83
2023/10/31 07:54:38;;;;;;;14.17;12.77;;;;;;;12.36;100.00;99935.91;5273560;28;20021;-82
2023/10/31 07:57:10;;;;;;;14.60;13.30;;;;;;;12.37;100.00;99942.78;5272138;28;20056;-82
2023/10/31 07:59:41;;;;;;;14.73;13.17;;;;;;;12.39;100.00;99940.88;5278130;28;20063;-82
2023/10/31 08:02:12;;;;;;;15.07;13.67;;;;;;;12.38;100.00;99941.81;5277054;28;20035;-82
2023/10/31 08:04:44;;;;;;;16.93;15.33;;;;;;;12.38;100.00;99949.69;5279086;28;20020;-82
2023/10/31 08:07:15;;;;;;;18.50;16.67;;;;;;;12.32;100.00;99936.13;5277693;28;20543;-82
2023/10/31 08:09:46;;;;;;;19.30;17.43;;;;;;;12.33;100.00;99944.84;5278992;28;20141;-82
2023/10/31 08:12:18;;;;;;;22.00;19.67;;;;;;;12.75;100.00;100001.84;5277861;28;20028;-82
2023/10/31 08:14:49;;;;;;;21.70;19.80;;;;;;;12.45;100.00;99970.09;5279448;28;20044;-82
2023/10/31 08:17:21;;;;;;;22.97;20.87;;;;;;;12.34;100.00;99944.72;5279934;28;20523;-82
2023/10/31 08:19:52;;;;;;;22.53;20.53;;;;;;;12.46;100.00;99961.25;5259628;28;20036;-82
2023/10/31 08:22:23;;;;;;;22.77;20.67;;;;;;;12.28;100.00;99945.22;5261485;28;20020;-82
2023/10/31 08:24:55;;;;;;;22.30;20.20;;;;;;;12.31;100.00;99936.25;5270873;28;20028;-82
2023/10/31 08:27:26;;;;;;;23.80;21.30;;;;;;;12.44;100.00;99959.72;5275677;28;20028;-81
2023/10/31 08:29:57;;;;;;;22.77;20.50;;;;;;;12.43;100.00;99960.66;5275457;28;20028;-82
2023/10/31 08:32:29;;;;;;;23.73;21.37;;;;;;;12.56;100.00;99977.09;5281462;28;20035;-81
2023/10/31 08:35:01;;;;;;;21.73;19.73;;;;;;;12.56;100.00;99973.63;5276621;28;20033;-81
2023/10/31 08:37:32;;;;;;;23.70;21.23;;;;;;;12.43;100.00;99947.53;5269899;28;20031;-81
2023/10/31 08:40:04;;;;;;;22.67;20.40;;;;;;;12.50;100.00;99950.50;5270401;28;20028;-81
2023/10/31 08:42:35;;;;;;;22.97;20.70;;;;;;;12.61;100.00;99981.13;5278370;28;20024;-81
2023/10/31 08:45:08;;;;;;;21.87;19.73;;;;;;;12.64;100.00;99997.47;5279136;28;20154;-81
2023/10/31 08:47:39;;;;;;;22.30;20.00;;;;;;;12.79;100.00;100016.38;5266437;28;20028;-81
2023/10/31 08:50:11;;;;;;;22.90;19.50;;;;;;;12.59;100.00;99994.38;5265143;28;20032;-81
2023/10/31 08:52:42;;;;;;;21.70;19.50;;;;;;;12.87;100.00;100021.00;5265646;28;20021;-80
2023/10/31 08:55:14;;;;;;;23.67;19.60;;;;;;;12.85;100.00;99998.44;5258125;28;20056;-82
2023/10/31 08:57:45;;;;;;;20.57;17.97;;;;;;;13.09;100.00;100031.53;5282765;28;20024;-81
2023/10/31 09:00:17;;;;;;;20.63;18.40;;;;;;;13.19;100.00;100063.97;5269542;28;20020;-81
2023/10/31 09:02:48;;;;;;;23.00;19.37;;;;;;;12.95;100.00;100015.13;5274331;28;20032;-81
2023/10/31 09:05:20;;;;;;;17.80;15.90;;;;;;;13.00;100.00;100026.09;5277492;28;20027;-84
2023/10/31 09:07:51;;;;;;;20.80;18.77;;;;;;;13.27;100.00;100022.09;5263745;28;20079;-82
2023/10/31 09:10:22;;;;;;;20.33;18.00;;;;;;;13.22;100.00;100005.88;5256304;28;20056;-83
2023/10/31 09:12:54;;;;;;;19.27;16.50;;;;;;;13.41;100.00;100038.47;5256779;28;20041;-82
2023/10/31 09:15:25;;;;;;;21.10;17.17;;;;;;;13.04;100.00;100003.81;5256016;28;20017;-82
2023/10/31 09:17:57;;;;;;;18.83;16.17;;;;;;;13.34;100.00;100084.66;5257138;28;20064;-82
2023/10/31 09:20:29;;;;;;;20.60;16.90;;;;;;;13.15;100.00;100041.53;5274057;28;20025;-81
2023/10/31 09:23:01;;;;;;;20.03;18.00;;;;;;;13.34;100.00;100061.00;5273687;28;20020;-81
2023/10/31 09:25:32;;;;;;;18.50;16.67;;;;;;;13.51;100.00;100035.91;5275552;28;20081;-81
2023/10/31 09:28:03;;;;;;;17.80;16.07;;;;;;;13.63;100.00;100039.31;5275374;28;20051;-81
2023/10/31 09:30:35;;;;;;;17.23;15.43;;;;;;;14.12;100.00;100064.97;5276984;28;20024;-81
2023/10/31 09:33:06;;;;;;;17.30;15.47;;;;;;;14.40;100.00;100078.31;5277215;28;20101;-81
2023/10/31 09:35:38;;;;;;;19.97;14.17;;;;;;;14.20;100.00;100090.63;5275375;28;20081;-81
2023/10/31 09:38:09;;;;;;;21.27;15.20;;;;;;;14.07;100.00;100082.97;5291485;28;20071;-82
2023/10/31 09:40:41;;;;;;;18.57;14.07;;;;;;;13.87;100.00;100082.91;5277474;28;20024;-81
2023/10/31 09:43:12;;;;;;;16.47;13.80;;;;;;;13.76;100.00;100102.25;5276180;28;20028;-81
2023/10/31 09:45:45;;;;;;;15.53;13.93;;;;;;;13.65;100.00;100116.31;5276567;28;20024;-81
2023/10/31 09:48:18;;;;;;;16.83;14.07;;;;;;;13.51;100.00;100099.88;5276316;28;20012;-81
2023/10/31 09:50:50;;;;;;;16.50;14.60;;;;;;;13.64;100.00;100135.69;5275468;28;20043;-80
2023/10/31 09:53:21;;;;;;;16.23;14.50;;;;;;;13.34;100.00;100082.03;5290405;28;20020;-80
2023/10/31 09:55:53;;;;;;;16.87;15.17;;;;;;;13.52;100.00;100100.75;5284158;28;20021;-81
2023/10/31 09:58:25;;;;;;;16.70;14.57;;;;;;;13.68;100.00;100134.50;5256148;28;20028;-81
2023/10/31 10:00:57;;;;;;;16.37;14.67;;;;;;;13.28;100.00;100071.06;5253894;28;20025;-80
2023/10/31 10:03:29;;;;;;;18.10;16.17;;;;;;;13.52;100.00;100096.31;5255480;28;20025;-80
2023/10/31 10:06:02;;;;;;;18.83;14.40;;;;;;;13.87;100.00;100135.53;5270849;28;20066;-80
2023/10/31 10:08:38;;;;;;;15.73;14.17;;;;;;;13.89;100.00;100123.91;5254108;28;20126;-80
2023/10/31 10:11:10;;;;;;;15.17;13.07;;;;;;;13.77;100.00;100128.44;5273407;28;20025;-81
2023/10/31 10:13:42;;;;;;;14.90;13.40;;;;;;;13.83;100.00;100145.50;5262432;28;20044;-80
2023/10/31 10:16:28;;;;;;;14.63;13.23;;;;;;;13.90;100.00;100128.22;5282826;28;20032;-81
2023/10/31 10:19:20;;;;;;;18.70;13.70;;;;;;;14.22;100.00;100160.66;5279930;28;20388;-81
2023/10/31 10:21:55;;;;;;;15.10;13.10;;;;;;;13.73;100.00;100145.47;5274119;28;20129;-82
2023/10/31 10:24:26;;;;;;;14.55;13.02;;;;;;;13.67;100.00;100136.28;5257595;28;20056;-82
2023/10/31 10:26:58;;;;;;;15.43;13.20;;;;;;;13.77;100.00;100152.09;5256160;28;20059;-81
2023/10/31 10:29:29;;;;;;;14.77;11.57;;;;;;;13.84;100.00;100167.41;5258109;28;20032;-82
2023/10/31 10:32:01;;;;;;;12.80;11.50;;;;;;;13.83;100.00;100157.81;5254782;28;20095;-82
2023/10/31 10:34:32;;;;;;;12.47;11.17;;;;;;;13.91;100.00;100163.28;5268232;28;20020;-82
2023/10/31 10:37:06;;;;;;;13.47;11.23;;;;;;;14.08;100.00;100184.69;5272392;28;20153;-82
2023/10/31 10:39:39;;;;;;;13.03;11.63;;;;;;;13.96;100.00;100162.88;5263712;28;20025;-80
2023/10/31 10:42:12;;;;;;;11.77;10.68;;;;;;;13.94;100.00;100172.69;5255007;28;20032;-80
2023/10/31 10:44:47;;;;;;;15.00;11.30;;;;;;;14.01;100.00;100193.13;5270467;28;20183;-79
2023/10/31 10:47:19;;;;;;;14.63;12.10;;;;;;;14.01;100.00;100190.50;5275058;28;20526;-80
2023/10/31 10:49:54;;;;;;;13.20;11.57;;;;;;;14.01;100.00;100176.50;5289790;28;20098;-79
2023/10/31 10:52:38;;;;;;;14.17;12.77;;;;;;;14.20;100.00;100194.19;5289114;28;20025;-80
2023/10/31 10:55:19;;;;;;;14.68;12.20;;;;;;;14.24;100.00;100211.38;5254300;28;20032;-79
2023/10/31 10:58:34;;;;;;;15.33;12.40;;;;;;;14.37;100.00;100205.03;5274645;28;20094;-80
2023/10/31 11:01:07;;;;;;;13.00;10.87;;;;;;;14.01;100.00;100194.91;5274691;28;20412;-80
2023/10/31 11:03:39;;;;;;;14.50;12.80;;;;;;;13.93;100.00;100189.47;5274129;28;20375;-79
2023/10/31 11:06:12;;;;;;;15.17;13.70;;;;;;;13.91;100.00;100200.13;5270952;28;20375;-80
2023/10/31 11:08:46;;;;;;;17.40;13.50;;;;;;;13.96;100.00;100197.94;5273763;28;20033;-81
2023/10/31 11:11:19;;;;;;;13.93;12.43;;;;;;;13.67;100.00;100154.69;5279337;28;20039;-81
2023/10/31 11:13:51;;;;;;;15.03;13.53;;;;;;;13.70;100.00;100172.00;5265501;28;20115;-82
2023/10/31 11:16:41;;;;;;;14.73;13.33;;;;;;;13.68;100.00;100147.66;5259728;28;20052;-81
2023/10/31 11:19:15;;;;;;;16.33;13.03;;;;;;;14.01;100.00;100211.56;5274805;28;20040;-82
2023/10/31 11:22:00;;;;;;;14.35;12.75;;;;;;;13.95;100.00;100175.19;5273099;28;20021;-82
2023/10/31 11:24:33;;;;;;;14.33;11.67;;;;;;;13.77;100.00;100173.16;5265523;28;20028;-82
2023/10/31 11:27:06;;;;;;;16.00;12.98;;;;;;;13.54;100.00;100154.88;5279612;28;20051;-82
2023/10/31 11:29:38;;;;;;;14.73;11.77;;;;;;;13.67;100.00;100156.47;5279648;28;20033;-82
2023/10/31 11:32:15;;;;;;;14.37;12.87;;;;;;;13.83;100.00;100160.44;5278289;28;20486;-83